sensor_id;sensor_type;location;lat;lon;timestamp;P1;durP1;ratioP1;P2;durP2;ratioP2
3597;SDS011;1813;52.016;8.714;2023-04-24T00:02:30;1.90;;;1.27;;
3597;SDS011;1813;52.016;8.714;2023-04-24T00:05:05;1.20;;;1.10;;
3597;SDS011;1813;52.016;8.714;2023-04-24T00:07:43;1.60;;;1.20;;
3597;SDS011;1813;52.016;8.714;2023-04-24T00:10:18;2.33;;;1.20;;
3597;SDS011;1813;52.016;8.714;2023-04-24T00:12:55;3.10;;;1.40;;
3597;SDS011;1813;52.016;8.714;2023-04-24T00:15:29;1.50;;;1.40;;
3597;SDS011;1813;52.016;8.714;2023-04-24T00:18:04;1.60;;;1.50;;
3597;SDS011;1813;52.016;8.714;2023-04-24T00:20:38;1.60;;;1.50;;
3597;SDS011;1813;52.016;8.714;2023-04-24T00:23:14;1.40;;;1.30;;
3597;SDS011;1813;52.016;8.714;2023-04-24T00:25:48;2.70;;;1.40;;
3597;SDS011;1813;52.016;8.714;2023-04-24T00:28:25;1.50;;;1.40;;
3597;SDS011;1813;52.016;8.714;2023-04-24T00:30:59;1.83;;;1.73;;
3597;SDS011;1813;52.016;8.714;2023-04-24T00:33:33;3.03;;;2.03;;
3597;SDS011;1813;52.016;8.714;2023-04-24T00:36:08;1.70;;;1.50;;
3597;SDS011;1813;52.016;8.714;2023-04-24T00:38:42;2.67;;;1.83;;
3597;SDS011;1813;52.016;8.714;2023-04-24T00:41:16;2.83;;;2.10;;
3597;SDS011;1813;52.016;8.714;2023-04-24T00:43:54;1.87;;;1.77;;
3597;SDS011;1813;52.016;8.714;2023-04-24T00:46:28;2.57;;;1.80;;
3597;SDS011;1813;52.016;8.714;2023-04-24T00:49:03;2.30;;;2.00;;
3597;SDS011;1813;52.016;8.714;2023-04-24T00:51:42;2.30;;;1.80;;
3597;SDS011;1813;52.016;8.714;2023-04-24T00:54:16;2.00;;;1.90;;
3597;SDS011;1813;52.016;8.714;2023-04-24T00:56:51;1.77;;;1.67;;
3597;SDS011;1813;52.016;8.714;2023-04-24T00:59:30;1.90;;;1.80;;
3597;SDS011;1813;52.016;8.714;2023-04-24T01:02:05;1.60;;;1.50;;
3597;SDS011;1813;52.016;8.714;2023-04-24T01:04:41;4.00;;;1.70;;
3597;SDS011;1813;52.016;8.714;2023-04-24T01:07:17;3.53;;;1.70;;
3597;SDS011;1813;52.016;8.714;2023-04-24T01:09:55;2.07;;;1.87;;
3597;SDS011;1813;52.016;8.714;2023-04-24T01:12:29;2.97;;;1.80;;
3597;SDS011;1813;52.016;8.714;2023-04-24T01:15:08;3.23;;;1.70;;
3597;SDS011;1813;52.016;8.714;2023-04-24T01:17:43;1.50;;;1.40;;
3597;SDS011;1813;52.016;8.714;2023-04-24T01:20:18;2.13;;;1.70;;
3597;SDS011;1813;52.016;8.714;2023-04-24T01:22:55;2.40;;;1.70;;
3597;SDS011;1813;52.016;8.714;2023-04-24T01:25:29;1.60;;;1.50;;
3597;SDS011;1813;52.016;8.714;2023-04-24T01:28:04;2.10;;;1.60;;
3597;SDS011;1813;52.016;8.714;2023-04-24T01:30:39;2.90;;;1.50;;
3597;SDS011;1813;52.016;8.714;2023-04-24T01:33:13;2.30;;;1.53;;
3597;SDS011;1813;52.016;8.714;2023-04-24T01:35:47;1.30;;;1.20;;
3597;SDS011;1813;52.016;8.714;2023-04-24T01:38:24;1.73;;;1.50;;
3597;SDS011;1813;52.016;8.714;2023-04-24T01:40:59;1.23;;;1.13;;
3597;SDS011;1813;52.016;8.714;2023-04-24T01:43:35;2.47;;;1.47;;
3597;SDS011;1813;52.016;8.714;2023-04-24T01:46:09;1.60;;;1.50;;
3597;SDS011;1813;52.016;8.714;2023-04-24T01:48:44;6.70;;;1.20;;
3597;SDS011;1813;52.016;8.714;2023-04-24T01:51:19;1.40;;;1.30;;
3597;SDS011;1813;52.016;8.714;2023-04-24T01:53:58;3.43;;;1.20;;
3597;SDS011;1813;52.016;8.714;2023-04-24T01:56:33;1.60;;;1.50;;
3597;SDS011;1813;52.016;8.714;2023-04-24T01:59:09;2.53;;;1.40;;
3597;SDS011;1813;52.016;8.714;2023-04-24T02:01:43;1.73;;;1.40;;
3597;SDS011;1813;52.016;8.714;2023-04-24T02:04:18;1.60;;;1.50;;
3597;SDS011;1813;52.016;8.714;2023-04-24T02:06:52;2.50;;;1.63;;
3597;SDS011;1813;52.016;8.714;2023-04-24T02:09:29;2.03;;;1.40;;
3597;SDS011;1813;52.016;8.714;2023-04-24T02:12:03;1.40;;;1.30;;
3597;SDS011;1813;52.016;8.714;2023-04-24T02:14:37;1.73;;;1.50;;
3597;SDS011;1813;52.016;8.714;2023-04-24T02:17:14;2.00;;;1.60;;
3597;SDS011;1813;52.016;8.714;2023-04-24T02:19:49;2.40;;;1.80;;
3597;SDS011;1813;52.016;8.714;2023-04-24T02:22:23;2.90;;;2.00;;
3597;SDS011;1813;52.016;8.714;2023-04-24T02:25:01;2.07;;;1.87;;
3597;SDS011;1813;52.016;8.714;2023-04-24T02:27:35;2.50;;;1.73;;
3597;SDS011;1813;52.016;8.714;2023-04-24T02:30:10;5.13;;;1.70;;
3597;SDS011;1813;52.016;8.714;2023-04-24T02:32:44;1.80;;;1.70;;
3597;SDS011;1813;52.016;8.714;2023-04-24T02:35:19;1.70;;;1.60;;
3597;SDS011;1813;52.016;8.714;2023-04-24T02:37:53;3.63;;;1.50;;
3597;SDS011;1813;52.016;8.714;2023-04-24T02:40:30;1.70;;;1.60;;
3597;SDS011;1813;52.016;8.714;2023-04-24T02:43:05;1.60;;;1.50;;
3597;SDS011;1813;52.016;8.714;2023-04-24T02:45:39;3.03;;;1.63;;
3597;SDS011;1813;52.016;8.714;2023-04-24T02:48:14;2.47;;;1.47;;
3597;SDS011;1813;52.016;8.714;2023-04-24T02:50:49;1.70;;;1.60;;
3597;SDS011;1813;52.016;8.714;2023-04-24T02:53:24;1.90;;;1.80;;
3597;SDS011;1813;52.016;8.714;2023-04-24T02:56:01;2.57;;;1.73;;
3597;SDS011;1813;52.016;8.714;2023-04-24T02:58:35;1.80;;;1.70;;
3597;SDS011;1813;52.016;8.714;2023-04-24T03:01:09;1.70;;;1.60;;
3597;SDS011;1813;52.016;8.714;2023-04-24T03:03:43;2.57;;;1.40;;
3597;SDS011;1813;52.016;8.714;2023-04-24T03:06:20;1.57;;;1.47;;
3597;SDS011;1813;52.016;8.714;2023-04-24T03:08:54;1.47;;;1.37;;
3597;SDS011;1813;52.016;8.714;2023-04-24T03:11:32;1.63;;;1.53;;
3597;SDS011;1813;52.016;8.714;2023-04-24T03:14:06;1.50;;;1.40;;
3597;SDS011;1813;52.016;8.714;2023-04-24T03:16:42;3.13;;;1.90;;
3597;SDS011;1813;52.016;8.714;2023-04-24T03:19:16;2.43;;;1.40;;
3597;SDS011;1813;52.016;8.714;2023-04-24T03:22:02;1.40;;;1.30;;
3597;SDS011;1813;52.016;8.714;2023-04-24T03:24:37;1.63;;;1.53;;
3597;SDS011;1813;52.016;8.714;2023-04-24T03:27:15;2.60;;;1.40;;
3597;SDS011;1813;52.016;8.714;2023-04-24T03:30:06;2.40;;;1.50;;
3597;SDS011;1813;52.016;8.714;2023-04-24T03:32:56;1.50;;;1.40;;
3597;SDS011;1813;52.016;8.714;2023-04-24T03:35:33;1.67;;;1.30;;
3597;SDS011;1813;52.016;8.714;2023-04-24T03:38:12;2.37;;;1.40;;
3597;SDS011;1813;52.016;8.714;2023-04-24T03:40:46;2.60;;;1.50;;
3597;SDS011;1813;52.016;8.714;2023-04-24T03:43:43;3.03;;;1.50;;
3597;SDS011;1813;52.016;8.714;2023-04-24T03:46:17;1.90;;;1.70;;
3597;SDS011;1813;52.016;8.714;2023-04-24T03:48:58;2.03;;;1.70;;
3597;SDS011;1813;52.016;8.714;2023-04-24T03:51:36;3.00;;;1.70;;
3597;SDS011;1813;52.016;8.714;2023-04-24T03:54:24;2.87;;;1.70;;
3597;SDS011;1813;52.016;8.714;2023-04-24T03:56:58;2.23;;;1.80;;
3597;SDS011;1813;52.016;8.714;2023-04-24T03:59:38;1.67;;;1.57;;
3597;SDS011;1813;52.016;8.714;2023-04-24T04:02:21;2.17;;;1.90;;
3597;SDS011;1813;52.016;8.714;2023-04-24T04:04:55;2.10;;;1.90;;
3597;SDS011;1813;52.016;8.714;2023-04-24T04:07:31;2.57;;;2.00;;
3597;SDS011;1813;52.016;8.714;2023-04-24T04:10:05;3.83;;;2.00;;
3597;SDS011;1813;52.016;8.714;2023-04-24T04:12:41;1.87;;;1.77;;
3597;SDS011;1813;52.016;8.714;2023-04-24T04:15:18;2.20;;;2.00;;
3597;SDS011;1813;52.016;8.714;2023-04-24T04:17:55;2.60;;;2.23;;
3597;SDS011;1813;52.016;8.714;2023-04-24T04:20:29;2.40;;;2.20;;
3597;SDS011;1813;52.016;8.714;2023-04-24T04:23:15;2.60;;;2.40;;
3597;SDS011;1813;52.016;8.714;2023-04-24T04:26:02;3.30;;;2.47;;
3597;SDS011;1813;52.016;8.714;2023-04-24T04:28:55;2.97;;;2.40;;
3597;SDS011;1813;52.016;8.714;2023-04-24T04:31:34;2.60;;;2.33;;
3597;SDS011;1813;52.016;8.714;2023-04-24T04:34:14;2.63;;;2.43;;
3597;SDS011;1813;52.016;8.714;2023-04-24T04:36:48;3.13;;;2.70;;
3597;SDS011;1813;52.016;8.714;2023-04-24T04:39:43;6.00;;;3.13;;
3597;SDS011;1813;52.016;8.714;2023-04-24T04:42:29;3.40;;;3.10;;
3597;SDS011;1813;52.016;8.714;2023-04-24T04:45:03;3.40;;;3.10;;
3597;SDS011;1813;52.016;8.714;2023-04-24T04:47:52;3.67;;;3.33;;
3597;SDS011;1813;52.016;8.714;2023-04-24T04:50:28;3.70;;;3.40;;
3597;SDS011;1813;52.016;8.714;2023-04-24T04:53:08;4.03;;;3.63;;
3597;SDS011;1813;52.016;8.714;2023-04-24T04:55:43;4.57;;;4.13;;
3597;SDS011;1813;52.016;8.714;2023-04-24T04:58:22;4.70;;;4.13;;
3597;SDS011;1813;52.016;8.714;2023-04-24T05:01:00;4.73;;;3.87;;
3597;SDS011;1813;52.016;8.714;2023-04-24T05:03:49;5.50;;;4.90;;
3597;SDS011;1813;52.016;8.714;2023-04-24T05:06:23;5.20;;;4.50;;
3597;SDS011;1813;52.016;8.714;2023-04-24T05:08:58;5.80;;;5.20;;
3597;SDS011;1813;52.016;8.714;2023-04-24T05:12:00;6.80;;;5.60;;
3597;SDS011;1813;52.016;8.714;2023-04-24T05:14:40;6.10;;;5.50;;
3597;SDS011;1813;52.016;8.714;2023-04-24T05:17:19;8.27;;;6.90;;
3597;SDS011;1813;52.016;8.714;2023-04-24T05:19:56;10.73;;;7.30;;
3597;SDS011;1813;52.016;8.714;2023-04-24T05:22:32;11.83;;;9.00;;
3597;SDS011;1813;52.016;8.714;2023-04-24T05:25:08;14.20;;;9.20;;
3597;SDS011;1813;52.016;8.714;2023-04-24T05:27:55;17.87;;;10.67;;
3597;SDS011;1813;52.016;8.714;2023-04-24T05:30:29;13.90;;;10.10;;
3597;SDS011;1813;52.016;8.714;2023-04-24T05:33:05;13.97;;;10.33;;
3597;SDS011;1813;52.016;8.714;2023-04-24T05:35:43;14.27;;;10.43;;
3597;SDS011;1813;52.016;8.714;2023-04-24T05:38:18;13.13;;;10.30;;
3597;SDS011;1813;52.016;8.714;2023-04-24T05:40:52;17.50;;;10.90;;
3597;SDS011;1813;52.016;8.714;2023-04-24T05:43:26;17.07;;;10.70;;
3597;SDS011;1813;52.016;8.714;2023-04-24T05:46:01;16.57;;;11.90;;
3597;SDS011;1813;52.016;8.714;2023-04-24T05:48:35;16.40;;;12.10;;
3597;SDS011;1813;52.016;8.714;2023-04-24T05:51:12;17.20;;;12.10;;
3597;SDS011;1813;52.016;8.714;2023-04-24T05:53:46;20.67;;;13.83;;
3597;SDS011;1813;52.016;8.714;2023-04-24T05:56:23;18.47;;;13.50;;
3597;SDS011;1813;52.016;8.714;2023-04-24T05:58:57;19.90;;;14.60;;
3597;SDS011;1813;52.016;8.714;2023-04-24T06:01:31;20.20;;;14.77;;
3597;SDS011;1813;52.016;8.714;2023-04-24T06:04:26;19.23;;;14.47;;
3597;SDS011;1813;52.016;8.714;2023-04-24T06:07:07;18.97;;;14.17;;
3597;SDS011;1813;52.016;8.714;2023-04-24T06:09:43;19.60;;;14.20;;
3597;SDS011;1813;52.016;8.714;2023-04-24T06:12:18;21.20;;;14.03;;
3597;SDS011;1813;52.016;8.714;2023-04-24T06:15:06;22.10;;;13.93;;
3597;SDS011;1813;52.016;8.714;2023-04-24T06:17:55;20.40;;;14.67;;
3597;SDS011;1813;52.016;8.714;2023-04-24T06:20:30;22.00;;;14.63;;
3597;SDS011;1813;52.016;8.714;2023-04-24T06:23:09;22.00;;;14.87;;
3597;SDS011;1813;52.016;8.714;2023-04-24T06:25:43;23.13;;;15.20;;
3597;SDS011;1813;52.016;8.714;2023-04-24T06:28:20;23.30;;;15.20;;
3597;SDS011;1813;52.016;8.714;2023-04-24T06:30:56;23.07;;;14.87;;
3597;SDS011;1813;52.016;8.714;2023-04-24T06:33:30;20.80;;;15.13;;
3597;SDS011;1813;52.016;8.714;2023-04-24T06:36:05;18.83;;;13.90;;
3597;SDS011;1813;52.016;8.714;2023-04-24T06:38:42;19.80;;;12.60;;
3597;SDS011;1813;52.016;8.714;2023-04-24T06:41:16;18.40;;;13.40;;
3597;SDS011;1813;52.016;8.714;2023-04-24T06:43:50;17.30;;;13.83;;
3597;SDS011;1813;52.016;8.714;2023-04-24T06:46:25;20.20;;;13.77;;
3597;SDS011;1813;52.016;8.714;2023-04-24T06:49:00;19.77;;;14.77;;
3597;SDS011;1813;52.016;8.714;2023-04-24T06:51:37;18.90;;;14.47;;
3597;SDS011;1813;52.016;8.714;2023-04-24T06:54:14;20.13;;;14.33;;
3597;SDS011;1813;52.016;8.714;2023-04-24T06:56:48;17.70;;;14.10;;
3597;SDS011;1813;52.016;8.714;2023-04-24T06:59:23;22.60;;;15.30;;
3597;SDS011;1813;52.016;8.714;2023-04-24T07:01:57;19.20;;;14.83;;
3597;SDS011;1813;52.016;8.714;2023-04-24T07:04:34;20.47;;;14.43;;
3597;SDS011;1813;52.016;8.714;2023-04-24T07:07:08;22.67;;;15.03;;
3597;SDS011;1813;52.016;8.714;2023-04-24T07:09:46;23.40;;;14.97;;
3597;SDS011;1813;52.016;8.714;2023-04-24T07:12:21;22.37;;;14.70;;
3597;SDS011;1813;52.016;8.714;2023-04-24T07:14:55;19.53;;;13.70;;
3597;SDS011;1813;52.016;8.714;2023-04-24T07:17:30;20.83;;;14.17;;
3597;SDS011;1813;52.016;8.714;2023-04-24T07:20:05;19.53;;;13.80;;
3597;SDS011;1813;52.016;8.714;2023-04-24T07:22:43;19.80;;;14.40;;
3597;SDS011;1813;52.016;8.714;2023-04-24T07:25:21;19.73;;;13.70;;
3597;SDS011;1813;52.016;8.714;2023-04-24T07:27:55;17.50;;;13.40;;
3597;SDS011;1813;52.016;8.714;2023-04-24T07:30:29;17.43;;;13.10;;
3597;SDS011;1813;52.016;8.714;2023-04-24T07:33:12;18.00;;;13.43;;
3597;SDS011;1813;52.016;8.714;2023-04-24T07:35:49;20.90;;;13.20;;
3597;SDS011;1813;52.016;8.714;2023-04-24T07:38:23;15.90;;;12.00;;
3597;SDS011;1813;52.016;8.714;2023-04-24T07:41:00;16.17;;;12.27;;
3597;SDS011;1813;52.016;8.714;2023-04-24T07:43:34;20.33;;;11.80;;
3597;SDS011;1813;52.016;8.714;2023-04-24T07:46:09;17.40;;;12.20;;
3597;SDS011;1813;52.016;8.714;2023-04-24T07:48:43;14.20;;;10.37;;
3597;SDS011;1813;52.016;8.714;2023-04-24T07:51:20;14.57;;;11.27;;
3597;SDS011;1813;52.016;8.714;2023-04-24T07:53:54;13.93;;;10.73;;
3597;SDS011;1813;52.016;8.714;2023-04-24T07:56:31;13.93;;;10.90;;
3597;SDS011;1813;52.016;8.714;2023-04-24T07:59:09;15.00;;;11.00;;
3597;SDS011;1813;52.016;8.714;2023-04-24T08:01:44;12.10;;;10.80;;
3597;SDS011;1813;52.016;8.714;2023-04-24T08:04:20;14.53;;;10.10;;
3597;SDS011;1813;52.016;8.714;2023-04-24T08:06:56;14.03;;;10.47;;
3597;SDS011;1813;52.016;8.714;2023-04-24T08:09:30;13.57;;;9.80;;
3597;SDS011;1813;52.016;8.714;2023-04-24T08:12:08;12.30;;;10.17;;
3597;SDS011;1813;52.016;8.714;2023-04-24T08:14:42;14.30;;;10.50;;
3597;SDS011;1813;52.016;8.714;2023-04-24T08:17:16;12.00;;;9.57;;
3597;SDS011;1813;52.016;8.714;2023-04-24T08:19:50;12.10;;;9.07;;
3597;SDS011;1813;52.016;8.714;2023-04-24T08:22:31;10.90;;;8.37;;
3597;SDS011;1813;52.016;8.714;2023-04-24T08:25:06;14.73;;;8.80;;
3597;SDS011;1813;52.016;8.714;2023-04-24T08:27:44;10.93;;;7.73;;
3597;SDS011;1813;52.016;8.714;2023-04-24T08:30:19;9.40;;;7.60;;
3597;SDS011;1813;52.016;8.714;2023-04-24T08:32:53;8.30;;;6.23;;
3597;SDS011;1813;52.016;8.714;2023-04-24T08:35:27;6.23;;;5.33;;
3597;SDS011;1813;52.016;8.714;2023-04-24T08:38:02;7.67;;;5.60;;
3597;SDS011;1813;52.016;8.714;2023-04-24T08:40:36;7.57;;;6.00;;
3597;SDS011;1813;52.016;8.714;2023-04-24T08:43:14;12.73;;;6.00;;
3597;SDS011;1813;52.016;8.714;2023-04-24T08:45:50;10.10;;;6.03;;
3597;SDS011;1813;52.016;8.714;2023-04-24T08:48:24;6.77;;;6.10;;
3597;SDS011;1813;52.016;8.714;2023-04-24T08:51:00;8.60;;;5.33;;
3597;SDS011;1813;52.016;8.714;2023-04-24T08:53:35;6.33;;;5.73;;
3597;SDS011;1813;52.016;8.714;2023-04-24T08:56:09;4.73;;;4.17;;
3597;SDS011;1813;52.016;8.714;2023-04-24T08:58:48;5.20;;;4.70;;
3597;SDS011;1813;52.016;8.714;2023-04-24T09:01:24;5.77;;;5.17;;
3597;SDS011;1813;52.016;8.714;2023-04-24T09:04:00;5.73;;;4.80;;
3597;SDS011;1813;52.016;8.714;2023-04-24T09:06:36;5.13;;;4.63;;
3597;SDS011;1813;52.016;8.714;2023-04-24T09:09:10;6.53;;;4.70;;
3597;SDS011;1813;52.016;8.714;2023-04-24T09:11:45;6.00;;;4.63;;
3597;SDS011;1813;52.016;8.714;2023-04-24T09:14:23;6.77;;;4.80;;
3597;SDS011;1813;52.016;8.714;2023-04-24T09:16:57;6.50;;;5.13;;
3597;SDS011;1813;52.016;8.714;2023-04-24T09:19:31;6.57;;;5.10;;
3597;SDS011;1813;52.016;8.714;2023-04-24T09:22:05;11.47;;;5.33;;
3597;SDS011;1813;52.016;8.714;2023-04-24T09:24:40;6.33;;;5.30;;
3597;SDS011;1813;52.016;8.714;2023-04-24T09:27:15;6.53;;;4.87;;
3597;SDS011;1813;52.016;8.714;2023-04-24T09:29:59;7.03;;;5.43;;
3597;SDS011;1813;52.016;8.714;2023-04-24T09:32:33;5.80;;;4.73;;
3597;SDS011;1813;52.016;8.714;2023-04-24T09:35:08;5.80;;;4.57;;
3597;SDS011;1813;52.016;8.714;2023-04-24T09:37:45;4.50;;;3.57;;
3597;SDS011;1813;52.016;8.714;2023-04-24T09:40:21;4.20;;;3.80;;
3597;SDS011;1813;52.016;8.714;2023-04-24T09:42:56;4.03;;;3.63;;
3597;SDS011;1813;52.016;8.714;2023-04-24T09:45:38;6.57;;;3.80;;
3597;SDS011;1813;52.016;8.714;2023-04-24T09:48:14;4.10;;;3.70;;
3597;SDS011;1813;52.016;8.714;2023-04-24T09:50:49;4.53;;;4.10;;
3597;SDS011;1813;52.016;8.714;2023-04-24T09:53:28;4.77;;;3.83;;
3597;SDS011;1813;52.016;8.714;2023-04-24T09:56:06;4.37;;;3.97;;
3597;SDS011;1813;52.016;8.714;2023-04-24T09:58:42;8.17;;;4.63;;
3597;SDS011;1813;52.016;8.714;2023-04-24T10:01:22;4.20;;;3.80;;
3597;SDS011;1813;52.016;8.714;2023-04-24T10:04:03;4.40;;;4.00;;
3597;SDS011;1813;52.016;8.714;2023-04-24T10:06:38;4.53;;;3.80;;
3597;SDS011;1813;52.016;8.714;2023-04-24T10:09:16;3.87;;;3.57;;
3597;SDS011;1813;52.016;8.714;2023-04-24T10:11:52;3.00;;;2.70;;
3597;SDS011;1813;52.016;8.714;2023-04-24T10:14:27;2.87;;;2.67;;
3597;SDS011;1813;52.016;8.714;2023-04-24T10:17:04;3.20;;;2.93;;
3597;SDS011;1813;52.016;8.714;2023-04-24T10:19:39;2.67;;;2.47;;
3597;SDS011;1813;52.016;8.714;2023-04-24T10:22:15;3.97;;;2.60;;
3597;SDS011;1813;52.016;8.714;2023-04-24T10:24:52;3.50;;;2.40;;
3597;SDS011;1813;52.016;8.714;2023-04-24T10:27:26;2.27;;;2.07;;
3597;SDS011;1813;52.016;8.714;2023-04-24T10:30:01;2.20;;;2.00;;
3597;SDS011;1813;52.016;8.714;2023-04-24T10:32:39;3.53;;;1.83;;
3597;SDS011;1813;52.016;8.714;2023-04-24T10:35:13;2.10;;;1.90;;
3597;SDS011;1813;52.016;8.714;2023-04-24T10:37:50;2.03;;;1.93;;
3597;SDS011;1813;52.016;8.714;2023-04-24T10:40:27;2.57;;;1.83;;
3597;SDS011;1813;52.016;8.714;2023-04-24T10:43:03;1.80;;;1.70;;
3597;SDS011;1813;52.016;8.714;2023-04-24T10:45:41;1.50;;;1.40;;
3597;SDS011;1813;52.016;8.714;2023-04-24T10:48:37;2.00;;;1.80;;
3597;SDS011;1813;52.016;8.714;2023-04-24T10:51:15;3.27;;;2.17;;
3597;SDS011;1813;52.016;8.714;2023-04-24T10:53:50;2.30;;;2.10;;
3597;SDS011;1813;52.016;8.714;2023-04-24T10:56:25;3.70;;;2.40;;
3597;SDS011;1813;52.016;8.714;2023-04-24T10:58:59;3.10;;;2.60;;
3597;SDS011;1813;52.016;8.714;2023-04-24T11:01:34;3.07;;;2.87;;
3597;SDS011;1813;52.016;8.714;2023-04-24T11:04:21;2.90;;;2.70;;
3597;SDS011;1813;52.016;8.714;2023-04-24T11:07:03;2.90;;;2.70;;
3597;SDS011;1813;52.016;8.714;2023-04-24T11:09:37;2.77;;;2.57;;
3597;SDS011;1813;52.016;8.714;2023-04-24T11:12:13;2.70;;;2.50;;
3597;SDS011;1813;52.016;8.714;2023-04-24T11:14:59;3.23;;;2.93;;
3597;SDS011;1813;52.016;8.714;2023-04-24T11:17:35;3.70;;;3.03;;
3597;SDS011;1813;52.016;8.714;2023-04-24T11:20:16;2.90;;;2.70;;
3597;SDS011;1813;52.016;8.714;2023-04-24T11:22:52;3.40;;;3.10;;
3597;SDS011;1813;52.016;8.714;2023-04-24T11:25:30;3.50;;;3.20;;
3597;SDS011;1813;52.016;8.714;2023-04-24T11:28:04;3.20;;;3.00;;
3597;SDS011;1813;52.016;8.714;2023-04-24T11:30:39;3.57;;;3.27;;
3597;SDS011;1813;52.016;8.714;2023-04-24T11:33:13;3.70;;;3.40;;
3597;SDS011;1813;52.016;8.714;2023-04-24T11:35:56;4.30;;;3.90;;
3597;SDS011;1813;52.016;8.714;2023-04-24T11:38:31;4.00;;;3.70;;
3597;SDS011;1813;52.016;8.714;2023-04-24T11:41:08;4.10;;;3.43;;
3597;SDS011;1813;52.016;8.714;2023-04-24T11:43:43;4.20;;;3.80;;
3597;SDS011;1813;52.016;8.714;2023-04-24T11:46:17;4.50;;;4.10;;
3597;SDS011;1813;52.016;8.714;2023-04-24T11:48:51;3.70;;;3.40;;
3597;SDS011;1813;52.016;8.714;2023-04-24T11:51:27;3.93;;;3.63;;
3597;SDS011;1813;52.016;8.714;2023-04-24T11:54:07;2.77;;;2.57;;
3597;SDS011;1813;52.016;8.714;2023-04-24T11:56:44;1.83;;;1.53;;
3597;SDS011;1813;52.016;8.714;2023-04-24T11:59:19;1.80;;;1.70;;
3597;SDS011;1813;52.016;8.714;2023-04-24T12:01:53;1.93;;;1.80;;
3597;SDS011;1813;52.016;8.714;2023-04-24T12:04:27;2.90;;;1.70;;
3597;SDS011;1813;52.016;8.714;2023-04-24T12:07:15;2.60;;;1.90;;
3597;SDS011;1813;52.016;8.714;2023-04-24T12:09:49;1.70;;;1.60;;
3597;SDS011;1813;52.016;8.714;2023-04-24T12:12:31;1.80;;;1.70;;
3597;SDS011;1813;52.016;8.714;2023-04-24T12:15:06;2.20;;;2.00;;
3597;SDS011;1813;52.016;8.714;2023-04-24T12:17:42;2.70;;;2.33;;
3597;SDS011;1813;52.016;8.714;2023-04-24T12:20:16;2.70;;;2.50;;
3597;SDS011;1813;52.016;8.714;2023-04-24T12:22:54;11.10;;;3.20;;
3597;SDS011;1813;52.016;8.714;2023-04-24T12:25:30;3.50;;;3.13;;
3597;SDS011;1813;52.016;8.714;2023-04-24T12:28:10;4.07;;;3.67;;
3597;SDS011;1813;52.016;8.714;2023-04-24T12:30:47;4.57;;;4.00;;
3597;SDS011;1813;52.016;8.714;2023-04-24T12:33:22;7.43;;;4.53;;
3597;SDS011;1813;52.016;8.714;2023-04-24T12:35:57;4.57;;;3.63;;
3597;SDS011;1813;52.016;8.714;2023-04-24T12:38:34;7.80;;;3.87;;
3597;SDS011;1813;52.016;8.714;2023-04-24T12:41:11;5.00;;;3.80;;
3597;SDS011;1813;52.016;8.714;2023-04-24T12:43:53;4.70;;;4.20;;
3597;SDS011;1813;52.016;8.714;2023-04-24T12:46:27;5.30;;;4.20;;
3597;SDS011;1813;52.016;8.714;2023-04-24T12:49:01;4.00;;;3.60;;
3597;SDS011;1813;52.016;8.714;2023-04-24T12:51:35;6.97;;;4.10;;
3597;SDS011;1813;52.016;8.714;2023-04-24T12:54:12;6.83;;;4.20;;
3597;SDS011;1813;52.016;8.714;2023-04-24T12:56:46;6.63;;;4.47;;
3597;SDS011;1813;52.016;8.714;2023-04-24T12:59:20;7.37;;;5.00;;
3597;SDS011;1813;52.016;8.714;2023-04-24T13:01:55;10.30;;;5.80;;
3597;SDS011;1813;52.016;8.714;2023-04-24T13:04:28;12.13;;;6.37;;
3597;SDS011;1813;52.016;8.714;2023-04-24T13:07:02;10.23;;;6.90;;
3597;SDS011;1813;52.016;8.714;2023-04-24T13:09:42;11.73;;;6.70;;
3597;SDS011;1813;52.016;8.714;2023-04-24T13:12:17;12.07;;;7.20;;
3597;SDS011;1813;52.016;8.714;2023-04-24T13:14:51;8.80;;;6.00;;
3597;SDS011;1813;52.016;8.714;2023-04-24T13:17:26;6.63;;;5.90;;
3597;SDS011;1813;52.016;8.714;2023-04-24T13:20:01;7.40;;;6.17;;
3597;SDS011;1813;52.016;8.714;2023-04-24T13:22:36;10.37;;;6.13;;
3597;SDS011;1813;52.016;8.714;2023-04-24T13:25:13;7.93;;;5.47;;
3597;SDS011;1813;52.016;8.714;2023-04-24T13:27:48;8.50;;;5.80;;
3597;SDS011;1813;52.016;8.714;2023-04-24T13:30:22;10.20;;;5.90;;
3597;SDS011;1813;52.016;8.714;2023-04-24T13:32:58;7.67;;;5.60;;
3597;SDS011;1813;52.016;8.714;2023-04-24T13:35:32;7.00;;;4.70;;
3597;SDS011;1813;52.016;8.714;2023-04-24T13:38:06;8.33;;;5.20;;
3597;SDS011;1813;52.016;8.714;2023-04-24T13:40:43;10.83;;;5.60;;
3597;SDS011;1813;52.016;8.714;2023-04-24T13:43:17;7.27;;;6.07;;
3597;SDS011;1813;52.016;8.714;2023-04-24T13:45:52;7.10;;;5.80;;
3597;SDS011;1813;52.016;8.714;2023-04-24T13:48:26;10.83;;;6.27;;
3597;SDS011;1813;52.016;8.714;2023-04-24T13:51:00;11.63;;;6.80;;
3597;SDS011;1813;52.016;8.714;2023-04-24T13:53:35;17.53;;;8.17;;
3597;SDS011;1813;52.016;8.714;2023-04-24T13:56:12;13.60;;;7.73;;
3597;SDS011;1813;52.016;8.714;2023-04-24T13:58:47;16.90;;;7.57;;
3597;SDS011;1813;52.016;8.714;2023-04-24T14:01:21;11.80;;;7.40;;
3597;SDS011;1813;52.016;8.714;2023-04-24T14:03:57;15.17;;;8.50;;
3597;SDS011;1813;52.016;8.714;2023-04-24T14:06:31;19.27;;;8.83;;
3597;SDS011;1813;52.016;8.714;2023-04-24T14:09:05;21.70;;;9.83;;
3597;SDS011;1813;52.016;8.714;2023-04-24T14:11:44;17.53;;;8.73;;
3597;SDS011;1813;52.016;8.714;2023-04-24T14:14:18;17.73;;;9.33;;
3597;SDS011;1813;52.016;8.714;2023-04-24T14:16:52;16.67;;;9.07;;
3597;SDS011;1813;52.016;8.714;2023-04-24T14:19:26;15.40;;;9.17;;
3597;SDS011;1813;52.016;8.714;2023-04-24T14:22:00;17.23;;;9.70;;
3597;SDS011;1813;52.016;8.714;2023-04-24T14:24:34;16.93;;;8.87;;
3597;SDS011;1813;52.016;8.714;2023-04-24T14:27:11;19.20;;;8.60;;
3597;SDS011;1813;52.016;8.714;2023-04-24T14:29:45;16.90;;;8.43;;
3597;SDS011;1813;52.016;8.714;2023-04-24T14:32:19;14.40;;;9.60;;
3597;SDS011;1813;52.016;8.714;2023-04-24T14:34:53;15.57;;;9.13;;
3597;SDS011;1813;52.016;8.714;2023-04-24T14:37:27;18.30;;;9.50;;
3597;SDS011;1813;52.016;8.714;2023-04-24T14:40:02;17.10;;;7.77;;
3597;SDS011;1813;52.016;8.714;2023-04-24T14:42:39;17.13;;;8.00;;
3597;SDS011;1813;52.016;8.714;2023-04-24T14:45:13;19.00;;;9.00;;
3597;SDS011;1813;52.016;8.714;2023-04-24T14:47:48;13.70;;;8.67;;
3597;SDS011;1813;52.016;8.714;2023-04-24T14:50:22;19.33;;;9.20;;
3597;SDS011;1813;52.016;8.714;2023-04-24T14:52:58;15.60;;;8.00;;
3597;SDS011;1813;52.016;8.714;2023-04-24T14:55:32;14.07;;;8.20;;
3597;SDS011;1813;52.016;8.714;2023-04-24T14:58:09;13.50;;;8.20;;
3597;SDS011;1813;52.016;8.714;2023-04-24T15:00:43;19.00;;;9.20;;
3597;SDS011;1813;52.016;8.714;2023-04-24T15:03:20;16.37;;;8.70;;
3597;SDS011;1813;52.016;8.714;2023-04-24T15:05:54;18.50;;;8.13;;
3597;SDS011;1813;52.016;8.714;2023-04-24T15:08:29;12.20;;;7.70;;
3597;SDS011;1813;52.016;8.714;2023-04-24T15:11:03;15.80;;;7.87;;
3597;SDS011;1813;52.016;8.714;2023-04-24T15:13:40;10.20;;;7.57;;
3597;SDS011;1813;52.016;8.714;2023-04-24T15:16:15;12.70;;;7.13;;
3597;SDS011;1813;52.016;8.714;2023-04-24T15:18:49;14.03;;;7.10;;
3597;SDS011;1813;52.016;8.714;2023-04-24T15:21:23;12.83;;;6.40;;
3597;SDS011;1813;52.016;8.714;2023-04-24T15:23:57;13.00;;;7.03;;
3597;SDS011;1813;52.016;8.714;2023-04-24T15:26:32;8.90;;;5.87;;
3597;SDS011;1813;52.016;8.714;2023-04-24T15:29:11;10.00;;;6.20;;
3597;SDS011;1813;52.016;8.714;2023-04-24T15:31:45;12.73;;;5.73;;
3597;SDS011;1813;52.016;8.714;2023-04-24T15:34:19;7.70;;;5.73;;
3597;SDS011;1813;52.016;8.714;2023-04-24T15:36:53;12.47;;;5.57;;
3597;SDS011;1813;52.016;8.714;2023-04-24T15:39:28;9.43;;;4.90;;
3597;SDS011;1813;52.016;8.714;2023-04-24T15:42:02;6.60;;;4.87;;
3597;SDS011;1813;52.016;8.714;2023-04-24T15:44:39;7.33;;;4.30;;
3597;SDS011;1813;52.016;8.714;2023-04-24T15:47:13;8.17;;;4.33;;
3597;SDS011;1813;52.016;8.714;2023-04-24T15:49:47;7.13;;;4.30;;
3597;SDS011;1813;52.016;8.714;2023-04-24T15:52:21;9.67;;;4.10;;
3597;SDS011;1813;52.016;8.714;2023-04-24T15:54:55;7.03;;;3.67;;
3597;SDS011;1813;52.016;8.714;2023-04-24T15:57:30;6.50;;;3.97;;
3597;SDS011;1813;52.016;8.714;2023-04-24T16:00:08;7.57;;;3.67;;
3597;SDS011;1813;52.016;8.714;2023-04-24T16:02:43;5.73;;;3.43;;
3597;SDS011;1813;52.016;8.714;2023-04-24T16:05:20;6.10;;;3.90;;